createdAt,value
2018-03-30T00:02:15.597Z,92951.18
2018-03-30T00:04:42.202Z,92948.84
2018-03-30T00:07:09.606Z,92948.94
2018-03-30T00:09:54.586Z,92938.25
2018-03-30T00:12:21.197Z,92944.41
2018-03-30T00:14:48.538Z,92940.02
2018-03-30T00:17:15.173Z,92936.45
2018-03-30T00:19:42.585Z,92936.15
2018-03-30T00:22:09.202Z,92936.98
2018-03-30T00:24:35.867Z,92932.16
2018-03-30T00:27:02.498Z,92931.98
2018-03-30T00:29:29.091Z,92922.60
2018-03-30T00:31:55.728Z,92914.39
2018-03-30T00:34:22.313Z,92913.75
2018-03-30T00:36:49.017Z,92906.70
2018-03-30T00:39:15.632Z,92910.91
2018-03-30T00:41:43.874Z,92905.87
2018-03-30T00:44:10.522Z,92915.88
2018-03-30T00:46:37.094Z,92902.72
2018-03-30T00:49:04.434Z,92902.81
2018-03-30T00:51:31.030Z,92901.65
2018-03-30T00:53:57.667Z,92887.88
2018-03-30T00:56:25.063Z,92881.27
2018-03-30T00:58:52.409Z,92890.64
2018-03-30T01:01:19.844Z,92884.34
2018-03-30T01:03:47.209Z,92887.16
2018-03-30T01:06:15.536Z,92885.28
2018-03-30T01:08:42.866Z,92882.95
2018-03-30T01:11:10.246Z,92886.81
2018-03-30T01:13:37.654Z,92881.55
2018-03-30T01:16:05.075Z,92879.38
2018-03-30T01:18:32.419Z,92874.88
2018-03-30T01:20:59.785Z,92877.06
2018-03-30T01:23:27.175Z,92869.60
2018-03-30T01:25:54.577Z,92869.73
2018-03-30T01:28:21.905Z,92870.58
2018-03-30T01:30:49.240Z,92870.48
2018-03-30T01:33:16.700Z,92867.81
2018-03-30T01:35:44.071Z,92864.52
2018-03-30T01:38:11.387Z,92869.84
2018-03-30T01:40:40.269Z,92871.92
2018-03-30T01:43:07.904Z,92857.89
2018-03-30T01:45:35.234Z,92856.53
2018-03-30T01:48:02.624Z,92851.14
2018-03-30T01:50:30.031Z,92846.34
2018-03-30T01:52:57.447Z,92848.46
2018-03-30T01:55:25.528Z,92837.68
2018-03-30T01:57:52.852Z,92827.73
2018-03-30T02:00:21.002Z,92825.25
2018-03-30T02:02:48.558Z,92826.32
2018-03-30T02:05:15.894Z,92824.33
2018-03-30T02:07:43.260Z,92820.91
2018-03-30T02:10:11.583Z,92821.30
2018-03-30T02:12:38.982Z,92826.17
2018-03-30T02:15:06.438Z,92828.66
2018-03-30T02:17:33.874Z,92833.71
2018-03-30T02:20:02.039Z,92829.55
2018-03-30T02:22:29.362Z,92840.66
2018-03-30T02:24:56.712Z,92834.94
2018-03-30T02:27:24.703Z,92833.42
2018-03-30T02:29:52.780Z,92829.69
2018-03-30T02:32:20.116Z,92829.20
2018-03-30T02:34:47.631Z,92823.01
2018-03-30T02:37:15.002Z,92825.30
2018-03-30T02:39:42.331Z,92824.08
2018-03-30T02:42:09.662Z,92823.13
2018-03-30T02:44:37.907Z,92825.28
2018-03-30T02:47:05.290Z,92829.11
2018-03-30T02:49:32.631Z,92823.81
2018-03-30T02:52:00.717Z,92823.41
2018-03-30T02:54:28.086Z,92817.48
2018-03-30T02:56:55.651Z,92817.33
2018-03-30T02:59:22.968Z,92804.45
2018-03-30T03:01:50.303Z,92808.86
2018-03-30T03:04:18.646Z,92800.17
2018-03-30T03:06:45.983Z,92798.34
2018-03-30T03:09:13.439Z,92798.98
2018-03-30T03:11:40.760Z,92797.06
2018-03-30T03:14:08.798Z,92795.09
2018-03-30T03:16:36.174Z,92786.12
2018-03-30T03:19:03.792Z,92784.63
2018-03-30T03:21:31.120Z,92782.47
2018-03-30T03:23:59.470Z,92785.67
2018-03-30T03:26:26.806Z,92793.94
2018-03-30T03:28:54.199Z,92792.36
2018-03-30T03:31:22.114Z,92786.08
2018-03-30T03:33:49.735Z,92785.20
2018-03-30T03:36:17.094Z,92783.11
2018-03-30T03:38:44.512Z,92775.34
2018-03-30T03:41:11.950Z,92770.27
2018-03-30T03:43:39.339Z,92762.77
2018-03-30T03:46:07.460Z,92765.80
2018-03-30T03:48:34.777Z,92762.91
2018-03-30T03:51:02.058Z,92763.07
2018-03-30T03:53:30.128Z,92762.41
2018-03-30T03:55:57.569Z,92771.41
2018-03-30T03:58:24.981Z,92774.81
2018-03-30T04:00:52.302Z,92787.52
2018-03-30T04:03:19.746Z,92779.28
2018-03-30T04:05:47.067Z,92795.00
2018-03-30T04:08:14.954Z,92791.70
2018-03-30T04:10:42.275Z,92783.36
2018-03-30T04:13:09.568Z,92776.65
2018-03-30T04:15:36.895Z,92772.85
2018-03-30T04:18:05.478Z,92762.98
2018-03-30T04:20:33.562Z,92756.51
2018-03-30T04:23:00.930Z,92760.73
2018-03-30T04:25:28.330Z,92753.63
2018-03-30T04:27:56.496Z,92752.89
2018-03-30T04:30:23.874Z,92746.35
2018-03-30T04:32:51.184Z,92736.73
2018-03-30T04:35:18.773Z,92734.39
2018-03-30T04:37:46.065Z,92728.70
2018-03-30T04:40:13.391Z,92730.86
2018-03-30T04:42:40.827Z,92727.01
2018-03-30T04:45:08.223Z,92725.96
2018-03-30T04:47:35.506Z,92717.61
2018-03-30T04:50:02.964Z,92718.60
2018-03-30T04:52:31.018Z,92713.30
2018-03-30T04:54:58.378Z,92715.36
2018-03-30T04:57:25.863Z,92712.52
2018-03-30T04:59:53.849Z,92703.42
2018-03-30T05:02:21.242Z,92704.66
2018-03-30T05:04:49.650Z,92698.19
2018-03-30T05:07:17.068Z,92705.68
2018-03-30T05:09:44.367Z,92706.28
2018-03-30T05:12:11.597Z,92697.59
2018-03-30T05:14:38.805Z,92691.82
2018-03-30T05:17:07.080Z,92691.17
2018-03-30T05:19:36.320Z,92701.34
2018-03-30T05:22:04.743Z,92687.80
2018-03-30T05:24:32.082Z,92693.88
2018-03-30T05:26:59.628Z,92688.41
2018-03-30T05:29:28.103Z,92687.69
2018-03-30T05:31:56.332Z,92685.50
2018-03-30T05:34:23.726Z,92687.27
2018-03-30T05:36:51.006Z,92690.26
2018-03-30T05:39:20.260Z,92681.12
2018-03-30T05:41:48.697Z,92682.45
2018-03-30T05:44:16.009Z,92678.97
2018-03-30T05:46:44.484Z,92675.34
2018-03-30T05:49:11.851Z,92664.86
2018-03-30T05:51:39.319Z,92673.29
2018-03-30T05:54:07.722Z,92662.94
2018-03-30T05:56:35.055Z,92662.58
2018-03-30T05:59:03.427Z,92665.97
2018-03-30T06:01:30.737Z,92660.20
2018-03-30T06:03:58.801Z,92662.27
2018-03-30T06:06:26.142Z,92657.61
2018-03-30T06:08:54.539Z,92653.86
2018-03-30T06:11:22.186Z,92655.88
2018-03-30T06:13:49.506Z,92650.67
2018-03-30T06:16:17.966Z,92651.02
2018-03-30T06:18:45.284Z,92657.05
2018-03-30T06:21:12.690Z,92668.64
2018-03-30T06:23:39.985Z,92663.38
2018-03-30T06:26:08.227Z,92657.07
2018-03-30T06:28:35.591Z,92659.64
2018-03-30T06:31:02.946Z,92658.02
2018-03-30T06:33:30.310Z,92658.67
2018-03-30T06:35:57.781Z,92651.45
2018-03-30T06:38:25.153Z,92649.55
2018-03-30T06:40:52.498Z,92640.60
2018-03-30T06:43:21.256Z,92640.00
2018-03-30T06:45:48.566Z,92636.22
2018-03-30T06:48:16.866Z,92629.82
2018-03-30T06:50:44.286Z,92631.20
2018-03-30T06:53:11.774Z,92630.29
2018-03-30T06:55:39.127Z,92623.89
2018-03-30T06:58:06.499Z,92623.91
2018-03-30T07:00:34.263Z,92622.66
2018-03-30T07:03:01.661Z,92623.97
2018-03-30T07:05:31.533Z,92615.87
2018-03-30T07:07:58.947Z,92616.22
2018-03-30T07:10:29.706Z,92619.45
2018-03-30T07:12:57.064Z,92615.16
2018-03-30T07:15:24.466Z,92614.56
2018-03-30T07:17:52.564Z,92610.73
2018-03-30T07:20:19.916Z,92610.02
2018-03-30T07:22:47.293Z,92602.28
2018-03-30T07:25:14.658Z,92605.13
2018-03-30T07:27:42.010Z,92598.52
2018-03-30T07:30:09.331Z,92593.92
2018-03-30T07:32:36.707Z,92599.98
2018-03-30T07:35:04.163Z,92592.38
2018-03-30T07:37:31.523Z,92581.11
2018-03-30T07:39:58.906Z,92571.93
2018-03-30T07:42:27.361Z,92571.25
2018-03-30T07:44:54.795Z,92562.05
2018-03-30T07:47:22.114Z,92558.69
2018-03-30T07:49:50.500Z,92561.19
2018-03-30T07:52:17.840Z,92549.77
2018-03-30T07:54:45.204Z,92541.58
2018-03-30T07:57:13.261Z,92540.22
2018-03-30T07:59:40.602Z,92531.89
2018-03-30T08:02:07.951Z,92524.13
2018-03-30T08:04:35.815Z,92522.98
2018-03-30T08:07:03.235Z,92522.89
2018-03-30T08:09:30.570Z,92507.23
2018-03-30T08:11:59.370Z,92511.45
2018-03-30T08:14:26.775Z,92501.67
2018-03-30T08:16:54.877Z,92502.80
2018-03-30T08:19:22.416Z,92496.87
2018-03-30T08:21:50.649Z,92491.17
2018-03-30T08:24:18.032Z,92486.61
2018-03-30T08:26:45.431Z,92486.97
2018-03-30T08:29:12.947Z,92481.45
2018-03-30T08:31:40.320Z,92484.88
2018-03-30T08:34:07.602Z,92480.80
2018-03-30T08:36:34.994Z,92479.17
2018-03-30T08:39:02.394Z,92470.80
2018-03-30T08:41:29.794Z,92475.07
2018-03-30T08:43:57.154Z,92476.78
2018-03-30T08:46:24.511Z,92476.83
2018-03-30T08:48:51.876Z,92481.36
2018-03-30T08:51:19.272Z,92478.73
2018-03-30T08:53:47.365Z,92486.84
2018-03-30T08:56:14.742Z,92480.20
2018-03-30T08:58:42.267Z,92472.13
2018-03-30T09:01:09.690Z,92465.94
2018-03-30T09:03:37.080Z,92471.27
2018-03-30T09:06:04.459Z,92466.01
2018-03-30T09:08:31.919Z,92466.16
2018-03-30T09:10:59.294Z,92469.23
2018-03-30T09:13:26.674Z,92456.91
2018-03-30T09:15:54.046Z,92456.37
2018-03-30T09:18:21.467Z,92445.06
2018-03-30T09:20:48.801Z,92439.06
2018-03-30T09:23:16.148Z,92429.64
2018-03-30T09:25:43.571Z,92426.19
2018-03-30T09:28:10.912Z,92431.19
2018-03-30T09:30:39.036Z,92435.31
2018-03-30T09:33:06.454Z,92422.50
2018-03-30T09:35:33.848Z,92415.34
2018-03-30T09:38:01.182Z,92416.08
2018-03-30T09:40:28.640Z,92415.93
2018-03-30T09:42:55.988Z,92410.25
2018-03-30T09:45:23.411Z,92412.95
2018-03-30T09:47:50.727Z,92405.89
2018-03-30T09:50:18.116Z,92394.19
2018-03-30T09:52:45.434Z,92401.67
2018-03-30T09:55:12.838Z,92387.84
2018-03-30T09:57:40.930Z,92388.09
2018-03-30T10:00:08.310Z,92393.84
2018-03-30T10:02:35.710Z,92381.61
2018-03-30T10:05:03.088Z,92399.34
2018-03-30T10:07:30.470Z,92396.44
2018-03-30T10:09:57.857Z,92391.77
2018-03-30T10:12:25.255Z,92380.05
2018-03-30T10:14:52.603Z,92374.96
2018-03-30T10:17:20.019Z,92378.14
2018-03-30T10:19:47.367Z,92372.97
2018-03-30T10:22:14.785Z,92365.95
2018-03-30T10:24:42.156Z,92369.78
2018-03-30T10:27:09.532Z,92358.03
2018-03-30T10:29:36.876Z,92344.75
2018-03-30T10:32:04.260Z,92345.92
2018-03-30T10:34:31.818Z,92338.98
2018-03-30T10:36:59.177Z,92345.11
2018-03-30T10:39:26.577Z,92341.13
2018-03-30T10:41:53.976Z,92341.69
2018-03-30T10:44:21.323Z,92342.45
2018-03-30T10:46:48.710Z,92344.40
2018-03-30T10:49:16.050Z,92342.23
2018-03-30T10:51:43.470Z,92350.16
2018-03-30T10:54:10.851Z,92343.51
2018-03-30T10:56:38.203Z,92344.86
2018-03-30T10:59:06.335Z,92340.87
2018-03-30T11:01:33.706Z,92327.57
2018-03-30T11:04:01.102Z,92328.64
2018-03-30T11:06:28.536Z,92338.27
2018-03-30T11:08:56.128Z,92316.84
2018-03-30T11:11:23.540Z,92314.11
2018-03-30T11:13:51.905Z,92303.33
2018-03-30T11:16:19.353Z,92303.90
2018-03-30T11:18:46.710Z,92301.88
2018-03-30T11:21:14.152Z,92313.06
2018-03-30T11:23:41.526Z,92314.69
2018-03-30T11:26:08.922Z,92308.52
2018-03-30T11:28:36.278Z,92309.73
2018-03-30T11:31:03.684Z,92308.63
2018-03-30T11:33:31.115Z,92311.85
2018-03-30T11:35:58.518Z,92300.58
2018-03-30T11:38:25.839Z,92290.73
2018-03-30T11:40:53.265Z,92286.94
2018-03-30T11:43:20.629Z,92273.38
2018-03-30T11:45:48.887Z,92264.26
2018-03-30T11:48:16.255Z,92248.41
2018-03-30T11:50:43.613Z,92240.09
2018-03-30T11:53:11.004Z,92246.41
2018-03-30T11:55:38.443Z,92239.88
2018-03-30T11:58:05.869Z,92240.02
2018-03-30T12:00:33.225Z,92232.71
2018-03-30T12:03:00.643Z,92226.57
2018-03-30T12:05:28.010Z,92219.29
2018-03-30T12:07:55.501Z,92213.28
2018-03-30T12:10:22.980Z,92209.40
2018-03-30T12:12:50.431Z,92197.71
2018-03-30T12:15:17.890Z,92207.45
2018-03-30T12:17:45.436Z,92185.98
2018-03-30T12:20:12.836Z,92180.02
2018-03-30T12:22:40.168Z,92187.17
2018-03-30T12:25:07.533Z,92170.12
2018-03-30T12:27:34.977Z,92153.09
2018-03-30T12:30:02.850Z,92161.84
2018-03-30T12:32:30.177Z,92159.11
2018-03-30T12:34:58.423Z,92156.40
2018-03-30T12:37:25.767Z,92140.53
2018-03-30T12:39:53.240Z,92138.34
2018-03-30T12:42:20.628Z,92129.17
2018-03-30T12:44:47.973Z,92112.86
2018-03-30T12:47:15.367Z,92111.52
2018-03-30T12:49:42.755Z,92120.45
2018-03-30T12:52:10.166Z,92111.97
2018-03-30T12:54:37.550Z,92095.45
2018-03-30T12:57:05.550Z,92099.91
2018-03-30T12:59:33.072Z,92090.04
2018-03-30T13:02:00.524Z,92085.13
2018-03-30T13:04:27.887Z,92074.45
2018-03-30T13:06:55.446Z,92065.93
2018-03-30T13:09:22.765Z,92073.38
2018-03-30T13:11:50.167Z,92082.68
2018-03-30T13:14:17.618Z,92065.96
2018-03-30T13:16:45.057Z,92059.56
2018-03-30T13:19:12.374Z,92056.38
2018-03-30T13:21:40.024Z,92041.19
2018-03-30T13:24:08.259Z,92049.36
2018-03-30T13:26:35.659Z,92044.77
2018-03-30T13:29:02.996Z,92037.00
2018-03-30T13:31:31.092Z,92029.19
2018-03-30T13:33:58.455Z,92019.91
2018-03-30T13:36:25.805Z,92019.05
2018-03-30T13:38:53.521Z,92005.92
2018-03-30T13:41:20.849Z,92014.50
2018-03-30T13:43:48.186Z,91993.89
2018-03-30T13:46:16.359Z,91992.86
2018-03-30T13:48:43.735Z,91989.70
2018-03-30T13:51:21.143Z,91986.67
2018-03-30T13:54:05.385Z,91983.39
2018-03-30T13:56:33.632Z,91971.22
2018-03-30T13:59:05.899Z,91981.02
2018-03-30T14:01:36.254Z,91968.92
2018-03-30T14:04:12.227Z,91968.70
2018-03-30T14:07:11.202Z,91970.55
2018-03-30T14:09:55.532Z,91959.82
2018-03-30T14:12:37.594Z,91959.08
2018-03-30T14:15:20.855Z,91957.69
2018-03-30T14:20:42.992Z,91946.84
2018-03-30T14:23:17.118Z,91927.36
2018-03-30T14:25:48.296Z,91926.47
2018-03-30T14:28:20.366Z,91922.63
2018-03-30T14:31:06.307Z,91899.56
2018-03-30T14:33:34.622Z,91894.84
2018-03-30T14:36:22.832Z,91880.99
2018-03-30T14:38:54.085Z,91874.66
2018-03-30T14:41:21.557Z,91883.65
2018-03-30T14:43:50.058Z,91899.88
2018-03-30T14:46:34.224Z,91897.63
2018-03-30T14:49:06.931Z,91911.70
2018-03-30T15:05:42.224Z,91967.70
2018-03-30T15:22:13.211Z,91976.83
2018-03-30T15:24:45.104Z,91969.45
2018-03-30T15:27:13.629Z,91975.97
2018-03-30T15:43:06.827Z,91975.43
2018-03-30T15:45:45.338Z,91978.59
2018-03-30T15:48:16.410Z,91982.56
2018-03-30T15:50:44.907Z,92015.84
2018-03-30T15:53:17.252Z,92028.25
2018-03-30T15:55:46.956Z,92043.12
2018-03-30T15:58:15.441Z,92055.00
2018-03-30T16:00:44.775Z,92071.05
2018-03-30T16:03:13.534Z,92067.80
2018-03-30T16:05:41.984Z,92079.14
2018-03-30T16:08:10.469Z,92085.52
2018-03-30T16:10:39.024Z,92086.25
2018-03-30T16:13:07.517Z,92090.58
2018-03-30T16:15:35.929Z,92099.97
2018-03-30T16:18:04.655Z,92108.38
2018-03-30T16:20:34.732Z,92108.19
2018-03-30T16:23:03.063Z,92120.05
2018-03-30T16:25:31.413Z,92126.14
2018-03-30T16:27:59.807Z,92128.27
2018-03-30T16:30:28.155Z,92137.83
2018-03-30T16:32:56.501Z,92146.11
2018-03-30T16:35:24.872Z,92155.91
2018-03-30T16:37:51.916Z,92163.81
2018-03-30T16:40:21.761Z,92160.69
2018-03-30T16:42:48.706Z,92163.95
2018-03-30T16:45:18.487Z,92165.99
2018-03-30T16:47:48.322Z,92162.32
2018-03-30T16:50:16.554Z,92165.19
2018-03-30T16:52:44.902Z,92163.85
2018-03-30T16:55:15.106Z,92180.73
2018-03-30T16:57:43.336Z,92174.39
2018-03-30T17:00:13.560Z,92179.36
2018-03-30T17:02:41.822Z,92185.54
2018-03-30T17:05:10.115Z,92188.76
2018-03-30T17:07:38.367Z,92206.63
2018-03-30T17:10:06.606Z,92195.49
2018-03-30T17:12:34.819Z,92189.16
2018-03-30T17:15:03.086Z,92210.17
2018-03-30T17:17:31.329Z,92211.13
2018-03-30T17:19:59.749Z,92204.13
2018-03-30T17:22:28.049Z,92209.57
2018-03-30T17:24:56.218Z,92210.03
2018-03-30T17:27:24.541Z,92214.47
2018-03-30T17:29:56.367Z,92215.94
2018-03-30T17:32:26.037Z,92210.84
2018-03-30T17:34:55.764Z,92195.65
2018-03-30T17:37:24.034Z,92200.02
2018-03-30T17:39:55.917Z,92207.11
2018-03-30T17:42:25.670Z,92204.58
2018-03-30T17:44:53.997Z,92202.01
2018-03-30T17:47:22.208Z,92201.75
2018-03-30T17:49:51.969Z,92205.84
2018-03-30T17:52:20.236Z,92208.05
2018-03-30T17:54:48.472Z,92218.17
2018-03-30T17:57:16.960Z,92212.20
2018-03-30T17:59:46.640Z,92208.15
2018-03-30T18:02:14.908Z,92214.78
2018-03-30T18:04:43.191Z,92212.41
2018-03-30T18:07:11.531Z,92216.46
2018-03-30T18:09:41.833Z,92215.55
2018-03-30T18:12:10.050Z,92218.69
2018-03-30T18:14:38.348Z,92217.81
2018-03-30T18:17:08.118Z,92226.81
2018-03-30T18:19:40.404Z,92226.32
2018-03-30T18:22:08.679Z,92241.51
2018-03-30T18:24:36.922Z,92246.97
2018-03-30T18:27:07.130Z,92250.58
2018-03-30T18:29:35.359Z,92255.33
2018-03-30T18:32:05.548Z,92263.05
2018-03-30T18:34:33.771Z,92269.64
2018-03-30T18:37:02.151Z,92266.21
2018-03-30T18:39:30.352Z,92276.36
2018-03-30T18:41:58.602Z,92262.25
2018-03-30T18:44:26.803Z,92256.64
2018-03-30T18:46:54.983Z,92249.09
2018-03-30T18:49:26.520Z,92254.56
2018-03-30T18:51:56.276Z,92255.93
2018-03-30T18:54:24.551Z,92267.02
2018-03-30T18:56:52.793Z,92275.31
2018-03-30T18:59:22.629Z,92272.21
2018-03-30T19:01:50.833Z,92269.60
2018-03-30T19:04:19.071Z,92268.39
2018-03-30T19:06:47.344Z,92271.55
2018-03-30T19:09:15.572Z,92269.60
2018-03-30T19:11:43.814Z,92275.06
2018-03-30T19:14:15.662Z,92277.02
2018-03-30T19:16:45.366Z,92272.89
2018-03-30T19:19:15.141Z,92266.91
2018-03-30T19:21:47.119Z,92265.93
2018-03-30T19:24:15.547Z,92264.52
2018-03-30T19:26:43.725Z,92257.45
2018-03-30T19:29:11.990Z,92264.56
2018-03-30T19:31:40.260Z,92267.82
2018-03-30T19:34:07.251Z,92265.12
2018-03-30T19:36:37.738Z,92258.17
2018-03-30T19:39:06.010Z,92248.99
2018-03-30T19:41:36.702Z,92229.09
2018-03-30T19:44:04.993Z,92218.61
2018-03-30T19:46:33.417Z,92215.54
2018-03-30T19:49:05.364Z,92227.93
2018-03-30T19:51:33.624Z,92226.28
2018-03-30T19:54:01.877Z,92223.87
2018-03-30T19:56:28.871Z,92214.84
2018-03-30T19:58:59.271Z,92213.03
2018-03-30T20:01:27.537Z,92221.95
2018-03-30T20:03:56.438Z,92222.75
2018-03-30T20:06:26.743Z,92217.02
2018-03-30T20:08:55.002Z,92216.63
2018-03-30T20:11:23.387Z,92199.52
2018-03-30T20:13:53.723Z,92195.66
2018-03-30T20:16:21.999Z,92196.97
2018-03-30T20:18:50.267Z,92190.44
2018-03-30T20:21:18.554Z,92191.52
2018-03-30T20:23:48.430Z,92196.33
2018-03-30T20:26:16.728Z,92200.81
2018-03-30T20:28:49.159Z,92191.72
2018-03-30T20:31:18.950Z,92196.09
2018-03-30T20:33:51.114Z,92202.95
2018-03-30T20:36:19.399Z,92201.98
2018-03-30T20:38:47.854Z,92201.10
2018-03-30T20:41:16.177Z,92196.48
2018-03-30T20:43:44.440Z,92198.56
2018-03-30T20:46:12.721Z,92191.00
2018-03-30T20:48:41.659Z,92199.78
2018-03-30T20:51:10.527Z,92190.55
2018-03-30T20:53:38.846Z,92191.52
2018-03-30T20:56:07.100Z,92197.87
2018-03-30T20:58:35.377Z,92204.88
2018-03-30T21:01:09.212Z,92224.20
2018-03-30T21:03:43.081Z,92223.36
2018-03-30T21:06:11.509Z,92231.45
2018-03-30T21:08:39.757Z,92236.09
2018-03-30T21:11:09.566Z,92235.39
2018-03-30T21:13:38.001Z,92234.98
2018-03-30T21:16:06.229Z,92237.92
2018-03-30T21:18:34.540Z,92230.52
2018-03-30T21:21:04.881Z,92238.69
2018-03-30T21:23:33.339Z,92250.21
2018-03-30T21:26:03.709Z,92262.73
2018-03-30T21:28:31.998Z,92259.33
2018-03-30T21:31:00.468Z,92249.95
2018-03-30T21:33:28.717Z,92247.95
2018-03-30T21:35:58.950Z,92248.15
2018-03-30T21:38:27.205Z,92255.47
2018-03-30T21:40:57.105Z,92255.42
2018-03-30T21:43:25.529Z,92250.01
2018-03-30T21:45:53.810Z,92246.30
2018-03-30T21:48:22.058Z,92253.56
2018-03-30T21:50:50.324Z,92254.39
2018-03-30T21:53:22.170Z,92250.21
2018-03-30T21:55:50.499Z,92244.57
2018-03-30T21:58:18.799Z,92248.44
2018-03-30T22:00:49.088Z,92253.39
2018-03-30T22:03:17.337Z,92255.67
2018-03-30T22:05:49.642Z,92250.88
2018-03-30T22:08:18.139Z,92246.50
2018-03-30T22:10:48.194Z,92252.79
2018-03-30T22:13:16.484Z,92260.77
2018-03-30T22:15:44.902Z,92258.78
2018-03-30T22:18:13.243Z,92256.95
2018-03-30T22:20:41.567Z,92251.80
2018-03-30T22:23:09.813Z,92252.89
2018-03-30T22:25:39.582Z,92250.00
2018-03-30T22:28:07.923Z,92252.47
2018-03-30T22:30:38.371Z,92244.13
2018-03-30T22:33:06.612Z,92245.31
2018-03-30T22:35:36.581Z,92245.23
2018-03-30T22:38:05.818Z,92236.73
2018-03-30T22:40:34.394Z,92224.50
2018-03-30T22:43:04.629Z,92220.89
2018-03-30T22:45:32.840Z,92211.92
2018-03-30T22:48:03.130Z,92205.59
2018-03-30T22:50:31.378Z,92208.23
2018-03-30T22:53:00.941Z,92202.56
2018-03-30T22:55:29.146Z,92199.45
2018-03-30T22:57:57.401Z,92203.35
2018-03-30T23:00:29.034Z,92198.55
2018-03-30T23:02:57.278Z,92199.84
2018-03-30T23:05:25.999Z,92203.75
2018-03-30T23:07:57.843Z,92210.20
2018-03-30T23:10:26.417Z,92207.29
2018-03-30T23:12:54.813Z,92213.09
2018-03-30T23:15:26.965Z,92216.41
2018-03-30T23:17:56.862Z,92232.55
2018-03-30T23:20:25.236Z,92229.82
2018-03-30T23:22:53.605Z,92230.62
2018-03-30T23:25:23.718Z,92228.45
2018-03-30T23:27:52.114Z,92224.23
2018-03-30T23:30:22.031Z,92223.84
2018-03-30T23:32:50.412Z,92235.53
2018-03-30T23:35:18.777Z,92235.85
2018-03-30T23:37:47.175Z,92241.25
2018-03-30T23:40:15.541Z,92236.36
2018-03-30T23:42:43.869Z,92232.06
2018-03-30T23:45:12.448Z,92247.25
2018-03-30T23:47:40.757Z,92239.84
2018-03-30T23:50:09.146Z,92236.28
2018-03-30T23:52:37.499Z,92230.66
2018-03-30T23:55:05.855Z,92236.27
2018-03-30T23:57:34.211Z,92238.06
